Silver Shadow — C6FN6 — position and weather

sailwx.info

Track history (hours):
 
Tides and Currents Weather Stations Pressure Air Temp Water Temp Dewpoint Dewpoint Depression Visibility Wind Speed Wind Dir Waves Ship Positions

Silver Shadow

Operator: V Ships Leisure SAM

Last reported at 2016-Jun-24 19:32 UTC. Time now 2016-Jun-28 22:25 UTC.
Position N 51°07' W 128°08'.

Length 186 m; draft 6.1 m.

Type: Passenger vessel. MMSI: 308628000.

Date/timePositionNaut miles runAvg speedWind from/ knotsBaromVisibWave heightAir tempDewpointWater temp
2016-Jun-24 19:32N 51°07' W 128°08'1515.5
2016-Jun-24 18:33N 51°00' W 127°47'1212.1
2016-Jun-24 17:33N 50°52' W 127°33'1313.2
2016-Jun-24 16:33N 50°46' W 127°14'1413.3
2016-Jun-24 15:30N 50°41' W 126°54'6312.6
2016-Jun-24 10:32N 50°16' W 125°23'1212.6
2016-Jun-24 09:33N 50°04' W 125°16'1716.7
2016-Jun-24 08:33N 49°51' W 124°59'1918.5
2016-Jun-24 07:33N 49°39' W 124°39'23 7.5
2016-Jun-24 04:34N 49°24' W 124°12'1312.9
2016-Jun-24 03:33N 49°20' W 123°53'1312.6
2016-Jun-24 02:33N 49°20' W 123°34'1312.9
2016-Jun-24 01:33N 49°19' W 123°14'5 5.3
2016-Jun-24 00:33N 49°17' W 123°07'0 0.0
2016-Jun-23 23:33N 49°17' W 123°07'0 0.0
2016-Jun-23 22:33N 49°17' W 123°07'0 0.0
2016-Jun-23 21:33N 49°17' W 123°07'0 0.0
2016-Jun-23 20:33N 49°17' W 123°07'0 0.0
2016-Jun-23 19:33N 49°17' W 123°07'0 0.0
2016-Jun-23 18:33N 49°17' W 123°07'0 0.0
2016-Jun-23 17:33N 49°17' W 123°07'0 0.0
2016-Jun-23 16:33N 49°17' W 123°07'0 0.0
2016-Jun-23 15:33N 49°17' W 123°07'0 0.0
2016-Jun-23 14:33N 49°17' W 123°07'2 1.7
2016-Jun-23 13:33N 49°19' W 123°08'1111.0
2016-Jun-23 12:33N 49°19' W 123°25'10 9.9
2016-Jun-23 11:33N 49°20' W 123°40'10 9.9
2016-Jun-23 10:33N 49°20' W 123°55'10 9.8
2016-Jun-23 09:33N 49°24' W 124°09'10 9.7
2016-Jun-23 08:33N 49°27' W 124°23'9 9.4
2016-Jun-23 07:33N 49°33' W 124°34'19 9.6
2016-Jun-23 05:33N 49°47' W 124°54'9 9.1
2016-Jun-23 04:32N 49°54' W 125°04'9 9.2
2016-Jun-23 03:33N 50°01' W 125°13'1211.8
2016-Jun-23 02:34N 50°11' W 125°22'1513.9
2016-Jun-23 01:27N 50°22' W 125°39'4118.1
2016-Jun-22 23:10N 50°33' W 126°41'1116.4
2016-Jun-22 22:31N 50°41' W 126°53'1717.7
2016-Jun-22 21:33N 50°47' W 127°17'1717.5
2016-Jun-22 20:33N 50°56' W 127°42'1615.9
2016-Jun-22 19:33N 51°04' W 128°04'  
2016-Jun-19 10:33N 58°11' W 135°22'1616.2
2016-Jun-19 09:33N 58°18' W 135°49'1615.7
2016-Jun-19 08:33N 58°18' W 136°19'115 3.9
2016-Jun-18 03:13N 59°13' W 139°35'  
Track history (hours):
 
Tides and Currents Weather Stations Pressure Air Temp Water Temp Dewpoint Dewpoint Depression Visibility Wind Speed Wind Dir Waves Ship Positions

Silver Shadow

Operator: V Ships Leisure SAM

Last reported at 2016-Jun-24 19:32 UTC. Time now 2016-Jun-28 22:25 UTC.
Position N 51°07' W 128°08'.

Length 186 m; draft 6.1 m.

Type: Passenger vessel. MMSI: 308628000.

Date/timePositionNaut miles runAvg speedWind from/ knotsBaromVisibWave heightAir tempDewpointWater temp
2016-Jun-24 19:32N 51°07' W 128°08'1515.5
2016-Jun-24 18:33N 51°00' W 127°47'1212.1
2016-Jun-24 17:33N 50°52' W 127°33'1313.2
2016-Jun-24 16:33N 50°46' W 127°14'1413.3
2016-Jun-24 15:30N 50°41' W 126°54'6312.6
2016-Jun-24 10:32N 50°16' W 125°23'1212.6
2016-Jun-24 09:33N 50°04' W 125°16'1716.7
2016-Jun-24 08:33N 49°51' W 124°59'1918.5
2016-Jun-24 07:33N 49°39' W 124°39'23 7.5
2016-Jun-24 04:34N 49°24' W 124°12'1312.9
2016-Jun-24 03:33N 49°20' W 123°53'1312.6
2016-Jun-24 02:33N 49°20' W 123°34'1312.9
2016-Jun-24 01:33N 49°19' W 123°14'5 5.3
2016-Jun-24 00:33N 49°17' W 123°07'0 0.0
2016-Jun-23 23:33N 49°17' W 123°07'0 0.0
2016-Jun-23 22:33N 49°17' W 123°07'0 0.0
2016-Jun-23 21:33N 49°17' W 123°07'0 0.0
2016-Jun-23 20:33N 49°17' W 123°07'0 0.0
2016-Jun-23 19:33N 49°17' W 123°07'0 0.0
2016-Jun-23 18:33N 49°17' W 123°07'0 0.0
2016-Jun-23 17:33N 49°17' W 123°07'0 0.0
2016-Jun-23 16:33N 49°17' W 123°07'0 0.0
2016-Jun-23 15:33N 49°17' W 123°07'0 0.0
2016-Jun-23 14:33N 49°17' W 123°07'2 1.7
2016-Jun-23 13:33N 49°19' W 123°08'1111.0
2016-Jun-23 12:33N 49°19' W 123°25'10 9.9
2016-Jun-23 11:33N 49°20' W 123°40'10 9.9
2016-Jun-23 10:33N 49°20' W 123°55'10 9.8
2016-Jun-23 09:33N 49°24' W 124°09'10 9.7
2016-Jun-23 08:33N 49°27' W 124°23'9 9.4
2016-Jun-23 07:33N 49°33' W 124°34'19 9.6
2016-Jun-23 05:33N 49°47' W 124°54'9 9.1
2016-Jun-23 04:32N 49°54' W 125°04'9 9.2
2016-Jun-23 03:33N 50°01' W 125°13'1211.8
2016-Jun-23 02:34N 50°11' W 125°22'1513.9
2016-Jun-23 01:27N 50°22' W 125°39'4118.1
2016-Jun-22 23:10N 50°33' W 126°41'1116.4
2016-Jun-22 22:31N 50°41' W 126°53'1717.7
2016-Jun-22 21:33N 50°47' W 127°17'1717.5
2016-Jun-22 20:33N 50°56' W 127°42'1615.9
2016-Jun-22 19:33N 51°04' W 128°04'  
2016-Jun-19 10:33N 58°11' W 135°22'1616.2
2016-Jun-19 09:33N 58°18' W 135°49'1615.7
2016-Jun-19 08:33N 58°18' W 136°19'115 3.9
2016-Jun-18 03:13N 59°13' W 139°35'  

Dump ship's entire track history